sensor_id;sensor_type;location;lat;lon;timestamp;temperature;humidity
25450;DHT22;13371;52.080;5.624;2023-04-25T00:02:12;10.40;99.90
25450;DHT22;13371;52.080;5.624;2023-04-25T00:04:38;10.30;99.90
25450;DHT22;13371;52.080;5.624;2023-04-25T00:07:04;10.20;99.90
25450;DHT22;13371;52.080;5.624;2023-04-25T00:09:31;10.00;99.90
25450;DHT22;13371;52.080;5.624;2023-04-25T00:11:57;10.00;99.90
25450;DHT22;13371;52.080;5.624;2023-04-25T00:14:22;10.00;99.90
25450;DHT22;13371;52.080;5.624;2023-04-25T00:16:48;10.00;99.90
25450;DHT22;13371;52.080;5.624;2023-04-25T00:19:14;10.10;99.90
25450;DHT22;13371;52.080;5.624;2023-04-25T00:21:40;10.10;99.90
25450;DHT22;13371;52.080;5.624;2023-04-25T00:24:06;10.20;99.90
25450;DHT22;13371;52.080;5.624;2023-04-25T00:26:34;10.00;99.90
25450;DHT22;13371;52.080;5.624;2023-04-25T00:29:00;10.10;99.90
25450;DHT22;13371;52.080;5.624;2023-04-25T00:31:25;10.10;99.90
25450;DHT22;13371;52.080;5.624;2023-04-25T00:33:51;10.20;99.90
25450;DHT22;13371;52.080;5.624;2023-04-25T00:36:17;10.20;99.90
25450;DHT22;13371;52.080;5.624;2023-04-25T00:38:43;10.20;99.90
25450;DHT22;13371;52.080;5.624;2023-04-25T00:41:09;10.10;99.90
25450;DHT22;13371;52.080;5.624;2023-04-25T00:43:36;9.80;99.90
25450;DHT22;13371;52.080;5.624;2023-04-25T00:46:02;9.90;99.90
25450;DHT22;13371;52.080;5.624;2023-04-25T00:48:28;9.90;99.90
25450;DHT22;13371;52.080;5.624;2023-04-25T00:50:56;10.00;99.90
25450;DHT22;13371;52.080;5.624;2023-04-25T00:53:23;9.80;99.90
25450;DHT22;13371;52.080;5.624;2023-04-25T00:55:50;9.70;99.90
25450;DHT22;13371;52.080;5.624;2023-04-25T00:58:19;9.80;99.90
25450;DHT22;13371;52.080;5.624;2023-04-25T01:00:47;9.80;99.90
25450;DHT22;13371;52.080;5.624;2023-04-25T01:03:13;9.80;99.90
25450;DHT22;13371;52.080;5.624;2023-04-25T01:05:42;9.80;99.90
25450;DHT22;13371;52.080;5.624;2023-04-25T01:08:08;9.80;99.90
25450;DHT22;13371;52.080;5.624;2023-04-25T01:10:34;9.80;99.90
25450;DHT22;13371;52.080;5.624;2023-04-25T01:12:59;9.50;99.90
25450;DHT22;13371;52.080;5.624;2023-04-25T01:15:25;9.50;99.90
25450;DHT22;13371;52.080;5.624;2023-04-25T01:17:50;9.30;99.90
25450;DHT22;13371;52.080;5.624;2023-04-25T01:20:16;9.10;99.90
25450;DHT22;13371;52.080;5.624;2023-04-25T01:22:42;9.30;99.90
25450;DHT22;13371;52.080;5.624;2023-04-25T01:25:09;9.40;99.90
25450;DHT22;13371;52.080;5.624;2023-04-25T01:27:36;9.60;99.90
25450;DHT22;13371;52.080;5.624;2023-04-25T01:30:03;9.60;99.90
25450;DHT22;13371;52.080;5.624;2023-04-25T01:32:29;9.60;99.90
25450;DHT22;13371;52.080;5.624;2023-04-25T01:34:57;9.70;99.90
25450;DHT22;13371;52.080;5.624;2023-04-25T01:37:22;9.70;99.90
25450;DHT22;13371;52.080;5.624;2023-04-25T01:39:48;9.80;99.90
25450;DHT22;13371;52.080;5.624;2023-04-25T01:42:15;9.80;99.90
25450;DHT22;13371;52.080;5.624;2023-04-25T01:44:41;9.80;99.90
25450;DHT22;13371;52.080;5.624;2023-04-25T01:47:06;9.80;99.90
25450;DHT22;13371;52.080;5.624;2023-04-25T01:49:32;9.70;99.90
25450;DHT22;13371;52.080;5.624;2023-04-25T01:51:58;9.70;99.90
25450;DHT22;13371;52.080;5.624;2023-04-25T01:54:23;9.70;99.90
25450;DHT22;13371;52.080;5.624;2023-04-25T01:56:52;9.70;99.90
25450;DHT22;13371;52.080;5.624;2023-04-25T01:59:18;9.50;99.90
25450;DHT22;13371;52.080;5.624;2023-04-25T02:01:45;9.60;99.90
25450;DHT22;13371;52.080;5.624;2023-04-25T02:04:11;9.50;99.90
25450;DHT22;13371;52.080;5.624;2023-04-25T02:06:36;9.50;99.90
25450;DHT22;13371;52.080;5.624;2023-04-25T02:09:02;9.30;99.90
25450;DHT22;13371;52.080;5.624;2023-04-25T02:11:27;9.30;99.90
25450;DHT22;13371;52.080;5.624;2023-04-25T02:13:53;9.20;99.90
25450;DHT22;13371;52.080;5.624;2023-04-25T02:16:18;9.10;99.90
25450;DHT22;13371;52.080;5.624;2023-04-25T02:18:44;9.10;99.90
25450;DHT22;13371;52.080;5.624;2023-04-25T02:21:10;9.20;99.90
25450;DHT22;13371;52.080;5.624;2023-04-25T02:23:36;9.30;99.90
25450;DHT22;13371;52.080;5.624;2023-04-25T02:26:02;9.30;99.90
25450;DHT22;13371;52.080;5.624;2023-04-25T02:28:28;9.30;99.90
25450;DHT22;13371;52.080;5.624;2023-04-25T02:30:53;9.00;99.90
25450;DHT22;13371;52.080;5.624;2023-04-25T02:33:19;9.10;99.90
25450;DHT22;13371;52.080;5.624;2023-04-25T02:35:46;9.10;99.90
25450;DHT22;13371;52.080;5.624;2023-04-25T02:38:12;9.20;99.90
25450;DHT22;13371;52.080;5.624;2023-04-25T02:40:37;9.20;99.90
25450;DHT22;13371;52.080;5.624;2023-04-25T02:43:03;9.20;99.90
25450;DHT22;13371;52.080;5.624;2023-04-25T02:45:28;9.10;99.90
25450;DHT22;13371;52.080;5.624;2023-04-25T02:47:54;9.20;99.90
25450;DHT22;13371;52.080;5.624;2023-04-25T02:50:19;9.30;99.90
25450;DHT22;13371;52.080;5.624;2023-04-25T02:52:45;9.20;99.90
25450;DHT22;13371;52.080;5.624;2023-04-25T02:55:12;9.20;99.90
25450;DHT22;13371;52.080;5.624;2023-04-25T02:57:37;9.30;99.80
25450;DHT22;13371;52.080;5.624;2023-04-25T03:00:03;9.30;99.60
25450;DHT22;13371;52.080;5.624;2023-04-25T03:02:30;9.20;99.60
25450;DHT22;13371;52.080;5.624;2023-04-25T03:04:56;9.20;99.50
25450;DHT22;13371;52.080;5.624;2023-04-25T03:07:21;9.10;99.60
25450;DHT22;13371;52.080;5.624;2023-04-25T03:09:47;9.10;99.60
25450;DHT22;13371;52.080;5.624;2023-04-25T03:12:12;9.10;99.60
25450;DHT22;13371;52.080;5.624;2023-04-25T03:14:38;9.10;99.50
25450;DHT22;13371;52.080;5.624;2023-04-25T03:17:04;9.00;99.40
25450;DHT22;13371;52.080;5.624;2023-04-25T03:19:29;9.00;99.80
25450;DHT22;13371;52.080;5.624;2023-04-25T03:21:55;8.90;99.70
25450;DHT22;13371;52.080;5.624;2023-04-25T03:24:21;9.00;99.70
25450;DHT22;13371;52.080;5.624;2023-04-25T03:26:47;9.10;99.80
25450;DHT22;13371;52.080;5.624;2023-04-25T03:29:13;9.00;99.70
25450;DHT22;13371;52.080;5.624;2023-04-25T03:31:38;9.00;99.70
25450;DHT22;13371;52.080;5.624;2023-04-25T03:34:04;9.00;99.70
25450;DHT22;13371;52.080;5.624;2023-04-25T03:36:29;8.90;99.60
25450;DHT22;13371;52.080;5.624;2023-04-25T03:38:55;8.80;99.80
25450;DHT22;13371;52.080;5.624;2023-04-25T03:41:20;8.70;99.90
25450;DHT22;13371;52.080;5.624;2023-04-25T03:43:46;8.90;99.70
25450;DHT22;13371;52.080;5.624;2023-04-25T03:46:12;8.80;99.30
25450;DHT22;13371;52.080;5.624;2023-04-25T03:48:37;8.70;99.90
25450;DHT22;13371;52.080;5.624;2023-04-25T03:51:03;8.70;99.70
25450;DHT22;13371;52.080;5.624;2023-04-25T03:53:29;8.70;99.50
25450;DHT22;13371;52.080;5.624;2023-04-25T03:55:54;8.60;99.90
25450;DHT22;13371;52.080;5.624;2023-04-25T03:58:20;8.60;99.90
25450;DHT22;13371;52.080;5.624;2023-04-25T04:00:46;8.60;99.90
25450;DHT22;13371;52.080;5.624;2023-04-25T04:03:11;8.50;99.90
25450;DHT22;13371;52.080;5.624;2023-04-25T04:05:37;8.50;99.90
25450;DHT22;13371;52.080;5.624;2023-04-25T04:08:05;8.60;99.90
25450;DHT22;13371;52.080;5.624;2023-04-25T04:10:31;8.30;99.90
25450;DHT22;13371;52.080;5.624;2023-04-25T04:12:57;8.40;99.90
25450;DHT22;13371;52.080;5.624;2023-04-25T04:15:22;8.30;99.90
25450;DHT22;13371;52.080;5.624;2023-04-25T04:17:48;8.50;99.90
25450;DHT22;13371;52.080;5.624;2023-04-25T04:20:14;8.30;99.90
25450;DHT22;13371;52.080;5.624;2023-04-25T04:22:39;8.30;99.90
25450;DHT22;13371;52.080;5.624;2023-04-25T04:25:05;8.40;99.90
25450;DHT22;13371;52.080;5.624;2023-04-25T04:27:31;8.40;99.90
25450;DHT22;13371;52.080;5.624;2023-04-25T04:29:57;8.40;99.90
25450;DHT22;13371;52.080;5.624;2023-04-25T04:32:23;8.60;99.90
25450;DHT22;13371;52.080;5.624;2023-04-25T04:34:49;8.60;99.90
25450;DHT22;13371;52.080;5.624;2023-04-25T04:37:14;8.60;99.90
25450;DHT22;13371;52.080;5.624;2023-04-25T04:39:40;8.60;99.90
25450;DHT22;13371;52.080;5.624;2023-04-25T04:42:06;8.70;99.90
25450;DHT22;13371;52.080;5.624;2023-04-25T04:44:32;8.70;99.90
25450;DHT22;13371;52.080;5.624;2023-04-25T04:46:58;8.70;99.90
25450;DHT22;13371;52.080;5.624;2023-04-25T04:49:24;8.70;99.90
25450;DHT22;13371;52.080;5.624;2023-04-25T04:51:49;8.60;99.90
25450;DHT22;13371;52.080;5.624;2023-04-25T04:54:15;8.80;99.90
25450;DHT22;13371;52.080;5.624;2023-04-25T04:56:41;8.70;99.90
25450;DHT22;13371;52.080;5.624;2023-04-25T04:59:07;8.70;99.90
25450;DHT22;13371;52.080;5.624;2023-04-25T05:01:33;8.70;99.90
25450;DHT22;13371;52.080;5.624;2023-04-25T05:04:00;8.50;99.90
25450;DHT22;13371;52.080;5.624;2023-04-25T05:06:29;8.50;99.90
25450;DHT22;13371;52.080;5.624;2023-04-25T05:08:56;8.50;99.90
25450;DHT22;13371;52.080;5.624;2023-04-25T05:11:23;8.60;99.90
25450;DHT22;13371;52.080;5.624;2023-04-25T05:13:51;8.60;99.90
25450;DHT22;13371;52.080;5.624;2023-04-25T05:16:17;8.60;99.90
25450;DHT22;13371;52.080;5.624;2023-04-25T05:18:43;8.80;99.90
25450;DHT22;13371;52.080;5.624;2023-04-25T05:21:08;8.90;99.90
25450;DHT22;13371;52.080;5.624;2023-04-25T05:23:34;8.90;99.90
25450;DHT22;13371;52.080;5.624;2023-04-25T05:26:00;8.70;99.90
25450;DHT22;13371;52.080;5.624;2023-04-25T05:28:25;8.90;99.90
25450;DHT22;13371;52.080;5.624;2023-04-25T05:30:51;8.90;99.90
25450;DHT22;13371;52.080;5.624;2023-04-25T05:33:17;9.10;99.90
25450;DHT22;13371;52.080;5.624;2023-04-25T05:35:43;9.10;99.90
25450;DHT22;13371;52.080;5.624;2023-04-25T05:38:08;9.40;99.90
25450;DHT22;13371;52.080;5.624;2023-04-25T05:40:34;9.20;99.90
25450;DHT22;13371;52.080;5.624;2023-04-25T05:43:00;9.30;99.90
25450;DHT22;13371;52.080;5.624;2023-04-25T05:45:26;9.50;99.90
25450;DHT22;13371;52.080;5.624;2023-04-25T05:47:51;9.50;99.90
25450;DHT22;13371;52.080;5.624;2023-04-25T05:50:17;9.20;99.90
25450;DHT22;13371;52.080;5.624;2023-04-25T05:52:42;9.40;99.90
25450;DHT22;13371;52.080;5.624;2023-04-25T05:55:08;9.60;99.90
25450;DHT22;13371;52.080;5.624;2023-04-25T05:57:34;9.50;99.90
25450;DHT22;13371;52.080;5.624;2023-04-25T06:00:00;9.70;99.90
25450;DHT22;13371;52.080;5.624;2023-04-25T06:02:26;9.50;99.90
25450;DHT22;13371;52.080;5.624;2023-04-25T06:04:51;9.40;99.90
25450;DHT22;13371;52.080;5.624;2023-04-25T06:07:18;9.40;99.90
25450;DHT22;13371;52.080;5.624;2023-04-25T06:09:44;9.70;99.90
25450;DHT22;13371;52.080;5.624;2023-04-25T06:12:09;9.70;99.90
25450;DHT22;13371;52.080;5.624;2023-04-25T06:14:35;9.60;99.90
25450;DHT22;13371;52.080;5.624;2023-04-25T06:17:06;10.00;99.90
25450;DHT22;13371;52.080;5.624;2023-04-25T06:19:35;10.10;99.90
25450;DHT22;13371;52.080;5.624;2023-04-25T06:22:01;9.90;99.90
25450;DHT22;13371;52.080;5.624;2023-04-25T06:24:26;10.00;99.80
25450;DHT22;13371;52.080;5.624;2023-04-25T06:26:52;10.10;99.90
25450;DHT22;13371;52.080;5.624;2023-04-25T06:29:18;10.00;99.70
25450;DHT22;13371;52.080;5.624;2023-04-25T06:31:43;10.10;99.90
25450;DHT22;13371;52.080;5.624;2023-04-25T06:34:09;10.20;99.90
25450;DHT22;13371;52.080;5.624;2023-04-25T06:36:34;10.20;99.90
25450;DHT22;13371;52.080;5.624;2023-04-25T06:39:00;10.40;99.90
25450;DHT22;13371;52.080;5.624;2023-04-25T06:41:26;10.40;99.90
25450;DHT22;13371;52.080;5.624;2023-04-25T06:43:54;10.50;99.90
25450;DHT22;13371;52.080;5.624;2023-04-25T06:46:20;10.50;99.90
25450;DHT22;13371;52.080;5.624;2023-04-25T06:48:48;10.50;99.90
25450;DHT22;13371;52.080;5.624;2023-04-25T06:51:13;10.50;99.90
25450;DHT22;13371;52.080;5.624;2023-04-25T06:53:40;10.70;99.90
25450;DHT22;13371;52.080;5.624;2023-04-25T06:56:09;10.70;99.90
25450;DHT22;13371;52.080;5.624;2023-04-25T06:58:35;11.00;99.90
25450;DHT22;13371;52.080;5.624;2023-04-25T07:01:01;10.70;98.70
25450;DHT22;13371;52.080;5.624;2023-04-25T07:03:27;10.80;98.90
25450;DHT22;13371;52.080;5.624;2023-04-25T07:05:52;11.00;99.60
25450;DHT22;13371;52.080;5.624;2023-04-25T07:08:18;11.00;99.10
25450;DHT22;13371;52.080;5.624;2023-04-25T07:10:44;11.00;98.70
25450;DHT22;13371;52.080;5.624;2023-04-25T07:13:13;10.90;98.80
25450;DHT22;13371;52.080;5.624;2023-04-25T07:15:39;10.90;98.60
25450;DHT22;13371;52.080;5.624;2023-04-25T07:18:04;11.00;99.00
25450;DHT22;13371;52.080;5.624;2023-04-25T07:20:33;11.00;98.60
25450;DHT22;13371;52.080;5.624;2023-04-25T07:23:01;11.00;98.50
25450;DHT22;13371;52.080;5.624;2023-04-25T07:25:27;11.00;98.30
25450;DHT22;13371;52.080;5.624;2023-04-25T07:27:53;11.10;98.60
25450;DHT22;13371;52.080;5.624;2023-04-25T07:30:19;10.90;97.40
25450;DHT22;13371;52.080;5.624;2023-04-25T07:32:50;10.80;98.20
25450;DHT22;13371;52.080;5.624;2023-04-25T07:35:26;10.90;98.60
25450;DHT22;13371;52.080;5.624;2023-04-25T07:37:57;10.90;98.00
25450;DHT22;13371;52.080;5.624;2023-04-25T07:40:27;11.10;98.20
25450;DHT22;13371;52.080;5.624;2023-04-25T07:42:53;11.10;97.90
25450;DHT22;13371;52.080;5.624;2023-04-25T07:45:25;11.30;98.40
25450;DHT22;13371;52.080;5.624;2023-04-25T07:47:54;11.50;98.70
25450;DHT22;13371;52.080;5.624;2023-04-25T07:50:26;11.60;97.40
25450;DHT22;13371;52.080;5.624;2023-04-25T07:56:08;11.60;95.10
25450;DHT22;13371;52.080;5.624;2023-04-25T07:58:51;11.40;94.10
25450;DHT22;13371;52.080;5.624;2023-04-25T08:01:16;11.40;95.30
25450;DHT22;13371;52.080;5.624;2023-04-25T08:03:45;11.30;95.30
25450;DHT22;13371;52.080;5.624;2023-04-25T08:06:10;11.30;95.20
25450;DHT22;13371;52.080;5.624;2023-04-25T08:08:36;11.30;96.20
25450;DHT22;13371;52.080;5.624;2023-04-25T08:11:02;11.40;96.00
25450;DHT22;13371;52.080;5.624;2023-04-25T08:13:27;11.80;96.30
25450;DHT22;13371;52.080;5.624;2023-04-25T08:15:53;11.80;95.10
25450;DHT22;13371;52.080;5.624;2023-04-25T08:18:18;11.80;94.60
25450;DHT22;13371;52.080;5.624;2023-04-25T08:20:44;11.90;94.90
25450;DHT22;13371;52.080;5.624;2023-04-25T08:23:10;12.10;94.90
25450;DHT22;13371;52.080;5.624;2023-04-25T08:25:36;12.40;93.30
25450;DHT22;13371;52.080;5.624;2023-04-25T08:28:01;12.30;92.80
25450;DHT22;13371;52.080;5.624;2023-04-25T08:30:28;12.30;94.00
25450;DHT22;13371;52.080;5.624;2023-04-25T08:32:54;12.10;93.40
25450;DHT22;13371;52.080;5.624;2023-04-25T08:35:20;12.00;93.10
25450;DHT22;13371;52.080;5.624;2023-04-25T08:37:46;11.70;93.10
25450;DHT22;13371;52.080;5.624;2023-04-25T08:40:14;11.50;94.10
25450;DHT22;13371;52.080;5.624;2023-04-25T08:42:41;11.30;94.40
25450;DHT22;13371;52.080;5.624;2023-04-25T08:45:09;11.00;95.20
25450;DHT22;13371;52.080;5.624;2023-04-25T08:47:38;11.00;94.40
25450;DHT22;13371;52.080;5.624;2023-04-25T08:50:04;11.00;95.00
25450;DHT22;13371;52.080;5.624;2023-04-25T08:52:44;11.10;95.00
25450;DHT22;13371;52.080;5.624;2023-04-25T08:55:13;11.10;94.80
25450;DHT22;13371;52.080;5.624;2023-04-25T08:57:41;11.40;94.40
25450;DHT22;13371;52.080;5.624;2023-04-25T09:00:11;11.60;94.90
25450;DHT22;13371;52.080;5.624;2023-04-25T09:02:39;11.20;93.30
25450;DHT22;13371;52.080;5.624;2023-04-25T09:05:05;11.00;93.40
25450;DHT22;13371;52.080;5.624;2023-04-25T09:07:32;11.30;94.10
25450;DHT22;13371;52.080;5.624;2023-04-25T09:09:57;11.60;93.60
25450;DHT22;13371;52.080;5.624;2023-04-25T09:12:26;11.90;93.60
25450;DHT22;13371;52.080;5.624;2023-04-25T09:15:12;12.20;91.50
25450;DHT22;13371;52.080;5.624;2023-04-25T09:17:38;12.60;91.00
25450;DHT22;13371;52.080;5.624;2023-04-25T09:20:08;12.80;91.50
25450;DHT22;13371;52.080;5.624;2023-04-25T09:22:35;12.70;90.60
25450;DHT22;13371;52.080;5.624;2023-04-25T09:25:09;13.10;89.80
25450;DHT22;13371;52.080;5.624;2023-04-25T09:27:36;13.40;91.80
25450;DHT22;13371;52.080;5.624;2023-04-25T09:30:03;13.70;91.00
25450;DHT22;13371;52.080;5.624;2023-04-25T09:32:28;14.00;90.50
25450;DHT22;13371;52.080;5.624;2023-04-25T09:34:55;14.10;88.00
25450;DHT22;13371;52.080;5.624;2023-04-25T09:37:29;13.70;88.50
25450;DHT22;13371;52.080;5.624;2023-04-25T09:39:57;14.00;89.00
25450;DHT22;13371;52.080;5.624;2023-04-25T09:42:28;13.90;83.70
25450;DHT22;13371;52.080;5.624;2023-04-25T09:44:56;13.70;84.40
25450;DHT22;13371;52.080;5.624;2023-04-25T09:47:23;13.40;84.50
25450;DHT22;13371;52.080;5.624;2023-04-25T09:49:50;13.00;86.30
25450;DHT22;13371;52.080;5.624;2023-04-25T09:52:22;13.10;86.50
25450;DHT22;13371;52.080;5.624;2023-04-25T09:54:49;13.60;89.90
25450;DHT22;13371;52.080;5.624;2023-04-25T09:57:20;13.50;84.30
25450;DHT22;13371;52.080;5.624;2023-04-25T09:59:47;13.60;83.40
25450;DHT22;13371;52.080;5.624;2023-04-25T10:02:16;13.60;83.50
25450;DHT22;13371;52.080;5.624;2023-04-25T10:04:45;13.10;87.30
25450;DHT22;13371;52.080;5.624;2023-04-25T10:07:13;12.40;89.80
25450;DHT22;13371;52.080;5.624;2023-04-25T10:09:40;12.20;91.00
25450;DHT22;13371;52.080;5.624;2023-04-25T10:12:07;11.80;90.70
25450;DHT22;13371;52.080;5.624;2023-04-25T10:14:33;11.80;90.30
25450;DHT22;13371;52.080;5.624;2023-04-25T10:17:00;11.90;91.00
25450;DHT22;13371;52.080;5.624;2023-04-25T10:19:27;11.90;91.00
25450;DHT22;13371;52.080;5.624;2023-04-25T10:22:18;11.70;91.10
25450;DHT22;13371;52.080;5.624;2023-04-25T10:24:46;11.70;91.50
25450;DHT22;13371;52.080;5.624;2023-04-25T10:27:12;11.70;90.00
25450;DHT22;13371;52.080;5.624;2023-04-25T10:29:38;11.90;91.00
25450;DHT22;13371;52.080;5.624;2023-04-25T10:32:04;12.00;89.50
25450;DHT22;13371;52.080;5.624;2023-04-25T10:34:43;12.20;91.30
25450;DHT22;13371;52.080;5.624;2023-04-25T10:37:12;12.50;89.60
25450;DHT22;13371;52.080;5.624;2023-04-25T10:39:42;12.80;89.00
25450;DHT22;13371;52.080;5.624;2023-04-25T10:42:08;13.30;89.40
25450;DHT22;13371;52.080;5.624;2023-04-25T10:44:34;13.60;85.00
25450;DHT22;13371;52.080;5.624;2023-04-25T10:47:02;13.70;84.90
25450;DHT22;13371;52.080;5.624;2023-04-25T10:49:34;14.00;84.30
25450;DHT22;13371;52.080;5.624;2023-04-25T10:54:51;14.20;82.90
25450;DHT22;13371;52.080;5.624;2023-04-25T10:57:40;14.80;84.10
25450;DHT22;13371;52.080;5.624;2023-04-25T11:05:11;15.60;80.00
25450;DHT22;13371;52.080;5.624;2023-04-25T11:07:50;15.70;76.80
25450;DHT22;13371;52.080;5.624;2023-04-25T11:11:11;15.60;76.40
25450;DHT22;13371;52.080;5.624;2023-04-25T11:14:29;15.70;77.40
25450;DHT22;13371;52.080;5.624;2023-04-25T11:17:04;15.90;77.20
25450;DHT22;13371;52.080;5.624;2023-04-25T11:19:33;16.20;78.60
25450;DHT22;13371;52.080;5.624;2023-04-25T11:22:18;16.40;78.10
25450;DHT22;13371;52.080;5.624;2023-04-25T11:25:01;16.70;75.70
25450;DHT22;13371;52.080;5.624;2023-04-25T11:27:58;16.90;73.40
25450;DHT22;13371;52.080;5.624;2023-04-25T11:30:39;16.70;72.40
25450;DHT22;13371;52.080;5.624;2023-04-25T11:43:52;13.80;81.60
25450;DHT22;13371;52.080;5.624;2023-04-25T11:47:00;12.90;88.30
25450;DHT22;13371;52.080;5.624;2023-04-25T11:50:10;12.20;91.60
25450;DHT22;13371;52.080;5.624;2023-04-25T11:56:15;11.90;93.10
25450;DHT22;13371;52.080;5.624;2023-04-25T12:02:37;12.00;92.10
25450;DHT22;13371;52.080;5.624;2023-04-25T12:25:17;12.60;89.20
25450;DHT22;13371;52.080;5.624;2023-04-25T12:31:06;13.90;84.20
25450;DHT22;13371;52.080;5.624;2023-04-25T12:33:44;13.90;84.20
25450;DHT22;13371;52.080;5.624;2023-04-25T12:39:28;14.30;82.30
25450;DHT22;13371;52.080;5.624;2023-04-25T12:42:07;14.40;82.70
25450;DHT22;13371;52.080;5.624;2023-04-25T12:44:44;14.20;85.10
25450;DHT22;13371;52.080;5.624;2023-04-25T12:50:33;13.70;88.80
25450;DHT22;13371;52.080;5.624;2023-04-25T12:53:02;13.70;88.60
25450;DHT22;13371;52.080;5.624;2023-04-25T13:09:33;14.60;82.30
25450;DHT22;13371;52.080;5.624;2023-04-25T13:22:42;14.90;73.60
25450;DHT22;13371;52.080;5.624;2023-04-25T13:26:03;14.90;75.80
25450;DHT22;13371;52.080;5.624;2023-04-25T13:35:37;15.30;72.00
25450;DHT22;13371;52.080;5.624;2023-04-25T13:42:04;15.80;72.20
25450;DHT22;13371;52.080;5.624;2023-04-25T13:45:24;14.60;75.90
25450;DHT22;13371;52.080;5.624;2023-04-25T13:48:10;13.70;80.40
25450;DHT22;13371;52.080;5.624;2023-04-25T13:57:28;13.00;85.00
25450;DHT22;13371;52.080;5.624;2023-04-25T14:00:04;13.50;84.30
25450;DHT22;13371;52.080;5.624;2023-04-25T14:06:12;14.00;77.20
25450;DHT22;13371;52.080;5.624;2023-04-25T14:22:58;14.50;74.20
25450;DHT22;13371;52.080;5.624;2023-04-25T14:26:01;14.40;74.70
25450;DHT22;13371;52.080;5.624;2023-04-25T14:29:10;13.90;77.70
25450;DHT22;13371;52.080;5.624;2023-04-25T14:34:49;13.60;77.50
25450;DHT22;13371;52.080;5.624;2023-04-25T14:37:29;13.40;77.90
25450;DHT22;13371;52.080;5.624;2023-04-25T14:43:23;13.40;76.90
25450;DHT22;13371;52.080;5.624;2023-04-25T14:49:55;14.40;75.50
25450;DHT22;13371;52.080;5.624;2023-04-25T14:52:24;14.40;72.40
25450;DHT22;13371;52.080;5.624;2023-04-25T14:55:10;14.10;74.20
25450;DHT22;13371;52.080;5.624;2023-04-25T14:58:10;13.60;76.60
25450;DHT22;13371;52.080;5.624;2023-04-25T15:08:07;13.20;80.10
25450;DHT22;13371;52.080;5.624;2023-04-25T15:11:19;12.90;80.40
25450;DHT22;13371;52.080;5.624;2023-04-25T15:14:27;13.30;81.20
25450;DHT22;13371;52.080;5.624;2023-04-25T15:17:28;13.20;81.30
25450;DHT22;13371;52.080;5.624;2023-04-25T15:20:17;13.20;80.70
25450;DHT22;13371;52.080;5.624;2023-04-25T15:26:30;13.20;79.40
25450;DHT22;13371;52.080;5.624;2023-04-25T15:28:58;13.30;78.50
25450;DHT22;13371;52.080;5.624;2023-04-25T15:31:27;13.10;77.20
25450;DHT22;13371;52.080;5.624;2023-04-25T15:33:58;13.30;79.80
25450;DHT22;13371;52.080;5.624;2023-04-25T15:36:30;13.70;78.20
25450;DHT22;13371;52.080;5.624;2023-04-25T15:38:56;14.10;76.80
25450;DHT22;13371;52.080;5.624;2023-04-25T15:41:23;14.20;76.90
25450;DHT22;13371;52.080;5.624;2023-04-25T15:43:49;14.40;77.60
25450;DHT22;13371;52.080;5.624;2023-04-25T15:46:15;14.30;74.40
25450;DHT22;13371;52.080;5.624;2023-04-25T15:48:40;14.10;71.90
25450;DHT22;13371;52.080;5.624;2023-04-25T15:51:06;13.70;75.90
25450;DHT22;13371;52.080;5.624;2023-04-25T15:53:32;13.30;74.90
25450;DHT22;13371;52.080;5.624;2023-04-25T15:55:57;13.10;77.50
25450;DHT22;13371;52.080;5.624;2023-04-25T15:58:23;13.00;77.70
25450;DHT22;13371;52.080;5.624;2023-04-25T16:00:49;13.00;76.00
25450;DHT22;13371;52.080;5.624;2023-04-25T16:03:16;13.00;76.80
25450;DHT22;13371;52.080;5.624;2023-04-25T16:05:42;12.90;79.20
25450;DHT22;13371;52.080;5.624;2023-04-25T16:08:08;12.70;78.70
25450;DHT22;13371;52.080;5.624;2023-04-25T16:10:34;12.40;80.50
25450;DHT22;13371;52.080;5.624;2023-04-25T16:12:59;12.30;83.00
25450;DHT22;13371;52.080;5.624;2023-04-25T16:15:25;12.50;82.70
25450;DHT22;13371;52.080;5.624;2023-04-25T16:17:51;12.80;82.90
25450;DHT22;13371;52.080;5.624;2023-04-25T16:20:17;12.80;82.00
25450;DHT22;13371;52.080;5.624;2023-04-25T16:22:42;13.10;79.90
25450;DHT22;13371;52.080;5.624;2023-04-25T16:25:09;12.80;80.10
25450;DHT22;13371;52.080;5.624;2023-04-25T16:27:36;12.30;81.70
25450;DHT22;13371;52.080;5.624;2023-04-25T16:30:05;12.10;84.00
25450;DHT22;13371;52.080;5.624;2023-04-25T16:32:32;12.20;83.00
25450;DHT22;13371;52.080;5.624;2023-04-25T16:34:58;12.20;84.80
25450;DHT22;13371;52.080;5.624;2023-04-25T16:37:24;12.00;87.00
25450;DHT22;13371;52.080;5.624;2023-04-25T16:39:49;12.00;86.20
25450;DHT22;13371;52.080;5.624;2023-04-25T16:42:15;12.00;85.20
25450;DHT22;13371;52.080;5.624;2023-04-25T16:44:41;12.10;87.40
25450;DHT22;13371;52.080;5.624;2023-04-25T16:47:06;12.10;86.70
25450;DHT22;13371;52.080;5.624;2023-04-25T16:49:35;12.30;88.40
25450;DHT22;13371;52.080;5.624;2023-04-25T16:52:00;12.40;87.30
25450;DHT22;13371;52.080;5.624;2023-04-25T16:54:26;12.40;87.70
25450;DHT22;13371;52.080;5.624;2023-04-25T16:56:52;12.40;85.90
25450;DHT22;13371;52.080;5.624;2023-04-25T16:59:18;12.50;84.10
25450;DHT22;13371;52.080;5.624;2023-04-25T17:01:44;12.30;84.20
25450;DHT22;13371;52.080;5.624;2023-04-25T17:04:10;12.40;83.80
25450;DHT22;13371;52.080;5.624;2023-04-25T17:06:36;12.70;84.90
25450;DHT22;13371;52.080;5.624;2023-04-25T17:09:02;12.80;83.20
25450;DHT22;13371;52.080;5.624;2023-04-25T17:11:28;13.00;82.30
25450;DHT22;13371;52.080;5.624;2023-04-25T17:13:54;13.10;82.80
25450;DHT22;13371;52.080;5.624;2023-04-25T17:16:20;13.10;83.40
25450;DHT22;13371;52.080;5.624;2023-04-25T17:18:48;13.00;83.00
25450;DHT22;13371;52.080;5.624;2023-04-25T17:21:15;12.40;81.40
25450;DHT22;13371;52.080;5.624;2023-04-25T17:23:40;12.40;82.10
25450;DHT22;13371;52.080;5.624;2023-04-25T17:26:11;12.20;81.30
25450;DHT22;13371;52.080;5.624;2023-04-25T17:28:36;12.20;79.30
25450;DHT22;13371;52.080;5.624;2023-04-25T17:31:02;12.10;81.10
25450;DHT22;13371;52.080;5.624;2023-04-25T17:33:27;12.10;82.30
25450;DHT22;13371;52.080;5.624;2023-04-25T17:35:53;12.20;81.10
25450;DHT22;13371;52.080;5.624;2023-04-25T17:38:19;12.30;81.20
25450;DHT22;13371;52.080;5.624;2023-04-25T17:40:46;12.20;81.60
25450;DHT22;13371;52.080;5.624;2023-04-25T17:43:11;12.00;79.10
25450;DHT22;13371;52.080;5.624;2023-04-25T17:45:37;11.70;80.00
25450;DHT22;13371;52.080;5.624;2023-04-25T17:48:03;11.50;77.80
25450;DHT22;13371;52.080;5.624;2023-04-25T17:50:28;11.50;80.10
25450;DHT22;13371;52.080;5.624;2023-04-25T17:52:54;11.70;79.60
25450;DHT22;13371;52.080;5.624;2023-04-25T17:55:20;11.70;78.80
25450;DHT22;13371;52.080;5.624;2023-04-25T17:57:45;11.70;80.30
25450;DHT22;13371;52.080;5.624;2023-04-25T18:00:11;11.70;78.40
25450;DHT22;13371;52.080;5.624;2023-04-25T18:02:45;11.70;80.10
25450;DHT22;13371;52.080;5.624;2023-04-25T18:05:19;11.70;80.20
25450;DHT22;13371;52.080;5.624;2023-04-25T18:08:01;11.60;78.50
25450;DHT22;13371;52.080;5.624;2023-04-25T18:10:30;11.40;79.00